createdAt,value
2023-04-20T00:02:07.251Z,3.09
2023-04-20T00:04:40.306Z,3.44
2023-04-20T00:07:13.585Z,3.51
2023-04-20T00:09:47.958Z,3.42
2023-04-20T00:12:21.053Z,3.21
2023-04-20T00:14:54.706Z,2.44
2023-04-20T00:17:27.581Z,2.68
2023-04-20T00:20:00.616Z,2.98
2023-04-20T00:22:34.004Z,2.57
2023-04-20T00:25:09.581Z,2.75
2023-04-20T00:27:42.466Z,3.11
2023-04-20T00:30:16.384Z,2.77
2023-04-20T00:32:49.577Z,2.33
2023-04-20T00:35:22.618Z,2.85
2023-04-20T00:37:57.725Z,3.26
2023-04-20T00:40:33.681Z,3.33
2023-04-20T00:43:14.250Z,3.45
2023-04-20T00:45:47.500Z,3.21
2023-04-20T00:48:21.022Z,3.61
2023-04-20T00:50:54.538Z,3.48
2023-04-20T00:53:27.540Z,3.79
2023-04-20T00:56:03.934Z,3.90
2023-04-20T00:58:36.979Z,3.81
2023-04-20T01:01:11.567Z,3.84
2023-04-20T01:03:45.255Z,4.05
2023-04-20T01:06:18.983Z,4.12
2023-04-20T01:08:53.048Z,4.02
2023-04-20T01:11:27.623Z,4.26
2023-04-20T01:14:00.660Z,3.93
2023-04-20T01:16:34.978Z,4.31
2023-04-20T01:19:08.370Z,4.14
2023-04-20T01:21:41.904Z,4.14
2023-04-20T01:24:16.005Z,4.14
2023-04-20T01:26:48.887Z,4.25
2023-04-20T01:29:21.900Z,3.91
2023-04-20T01:31:54.904Z,2.94
2023-04-20T01:34:28.130Z,3.17
2023-04-20T01:37:01.159Z,3.51
2023-04-20T01:39:36.308Z,3.94
2023-04-20T01:42:09.347Z,3.85
2023-04-20T01:44:42.319Z,3.28
2023-04-20T01:47:15.740Z,3.10
2023-04-20T01:49:48.735Z,3.08
2023-04-20T01:52:21.526Z,2.96
2023-04-20T01:54:55.988Z,2.93
2023-04-20T01:57:30.863Z,3.38
2023-04-20T02:00:04.551Z,3.53
2023-04-20T02:02:47.276Z,2.95
2023-04-20T02:05:21.862Z,2.93
2023-04-20T02:07:55.203Z,3.07
2023-04-20T02:10:29.343Z,3.43
2023-04-20T02:13:02.177Z,3.59
2023-04-20T02:15:37.999Z,3.65
2023-04-20T02:18:10.912Z,3.90
2023-04-20T02:20:43.941Z,3.24
2023-04-20T02:23:16.815Z,3.20
2023-04-20T02:25:51.042Z,3.17
2023-04-20T02:28:23.927Z,3.54
2023-04-20T02:30:56.735Z,3.80
2023-04-20T02:33:29.929Z,3.38
2023-04-20T02:36:03.018Z,3.96
2023-04-20T02:38:36.281Z,4.10
2023-04-20T02:41:10.680Z,4.12
2023-04-20T02:43:43.880Z,4.16
2023-04-20T02:46:18.810Z,3.55
2023-04-20T02:48:51.820Z,3.91
2023-04-20T02:51:25.216Z,4.17
2023-04-20T02:53:59.813Z,4.26
2023-04-20T02:56:35.970Z,3.99
2023-04-20T02:59:13.064Z,3.53
2023-04-20T03:01:51.881Z,3.66
2023-04-20T03:04:27.936Z,3.60
2023-04-20T03:07:21.242Z,4.26
2023-04-20T03:09:54.896Z,4.33
2023-04-20T03:12:33.252Z,4.22
2023-04-20T03:15:28.970Z,4.52
2023-04-20T03:18:09.238Z,4.06
2023-04-20T03:20:42.450Z,3.74
2023-04-20T03:23:15.402Z,4.26
2023-04-20T03:25:49.255Z,4.43
2023-04-20T03:28:37.343Z,3.97
2023-04-20T03:31:10.338Z,4.44
2023-04-20T03:33:43.293Z,4.50
2023-04-20T03:36:16.240Z,4.50
2023-04-20T03:38:49.198Z,4.36
2023-04-20T03:41:22.201Z,4.71
2023-04-20T03:43:56.588Z,4.54
2023-04-20T03:46:29.627Z,4.58
2023-04-20T03:49:03.338Z,4.59
2023-04-20T03:51:36.105Z,4.13
2023-04-20T03:54:09.986Z,4.32
2023-04-20T03:56:44.622Z,4.60
2023-04-20T03:59:20.033Z,4.76
2023-04-20T04:01:55.027Z,4.53
2023-04-20T04:04:28.467Z,4.53
2023-04-20T04:07:03.464Z,4.72
2023-04-20T04:09:36.233Z,4.41
2023-04-20T04:12:09.394Z,4.47
2023-04-20T04:14:43.921Z,4.33
2023-04-20T04:17:18.963Z,4.15
2023-04-20T04:19:52.093Z,4.18
2023-04-20T04:22:25.436Z,4.22
2023-04-20T04:25:18.678Z,3.78
2023-04-20T04:27:51.733Z,3.97
2023-04-20T04:30:26.097Z,4.03
2023-04-20T04:32:59.769Z,4.05
2023-04-20T04:35:34.632Z,3.98
2023-04-20T04:38:07.928Z,3.96
2023-04-20T04:40:46.061Z,3.92
2023-04-20T04:43:20.137Z,3.79
2023-04-20T04:46:10.887Z,3.76
2023-04-20T04:48:43.843Z,3.71
2023-04-20T04:51:17.165Z,3.79
2023-04-20T04:53:50.236Z,3.80
2023-04-20T04:56:23.630Z,3.74
2023-04-20T04:58:56.611Z,3.70
2023-04-20T05:01:30.894Z,3.59
2023-04-20T05:04:04.011Z,3.60
2023-04-20T05:06:39.851Z,3.62
2023-04-20T05:09:12.868Z,3.72
2023-04-20T05:11:45.594Z,3.45
2023-04-20T05:14:18.396Z,3.58
2023-04-20T05:16:52.609Z,3.48
2023-04-20T05:19:26.079Z,3.57
2023-04-20T05:21:58.878Z,3.67
2023-04-20T05:24:31.708Z,3.61
2023-04-20T05:27:04.614Z,3.71
2023-04-20T05:29:37.381Z,3.67
2023-04-20T05:32:11.657Z,3.82
2023-04-20T05:34:44.469Z,3.98
2023-04-20T05:37:17.385Z,3.71
2023-04-20T05:39:50.179Z,3.71
2023-04-20T05:42:23.259Z,3.93
2023-04-20T05:44:56.422Z,3.81
2023-04-20T05:47:30.893Z,3.95
2023-04-20T05:50:03.960Z,4.01
2023-04-20T05:52:36.762Z,4.00
2023-04-20T05:55:10.864Z,4.35
2023-04-20T05:57:43.713Z,4.47
2023-04-20T06:00:17.926Z,4.53
2023-04-20T06:02:52.646Z,4.68
2023-04-20T06:05:25.977Z,4.86
2023-04-20T06:07:58.931Z,4.86
2023-04-20T06:10:34.403Z,5.02
2023-04-20T06:13:08.224Z,5.07
2023-04-20T06:15:41.576Z,5.39
2023-04-20T06:18:16.444Z,5.43
2023-04-20T06:20:49.341Z,5.50
2023-04-20T06:23:22.335Z,5.64
2023-04-20T06:25:55.284Z,5.78
2023-04-20T06:28:28.495Z,5.70
2023-04-20T06:31:01.386Z,5.77
2023-04-20T06:33:36.059Z,6.02
2023-04-20T06:36:09.077Z,6.04
2023-04-20T06:38:41.853Z,6.21
2023-04-20T06:41:15.466Z,6.33
2023-04-20T06:43:48.457Z,6.43
2023-04-20T06:46:21.589Z,6.35
2023-04-20T06:48:55.752Z,6.69
2023-04-20T06:51:29.208Z,6.75
2023-04-20T06:54:02.045Z,7.04
2023-04-20T06:56:35.821Z,7.07
2023-04-20T06:59:08.624Z,7.27
2023-04-20T07:01:41.503Z,7.16
2023-04-20T07:04:16.057Z,7.32
2023-04-20T07:06:53.831Z,7.59
2023-04-20T07:09:27.093Z,7.91
2023-04-20T07:12:00.153Z,7.94
2023-04-20T07:14:32.939Z,7.94
2023-04-20T07:17:05.726Z,8.18
2023-04-20T07:19:40.060Z,7.78
2023-04-20T07:22:12.835Z,8.14
2023-04-20T07:24:45.949Z,8.48
2023-04-20T07:27:18.956Z,8.64
2023-04-20T07:29:52.313Z,8.62
2023-04-20T07:32:25.241Z,8.70
2023-04-20T07:34:59.392Z,8.83
2023-04-20T07:37:32.710Z,8.42
2023-04-20T07:40:07.144Z,8.75
2023-04-20T07:42:40.325Z,9.14
2023-04-20T07:45:14.425Z,9.54
2023-04-20T07:47:51.324Z,9.34
2023-04-20T07:50:27.323Z,8.76
2023-04-20T07:53:00.531Z,9.33
2023-04-20T07:55:33.863Z,9.13
2023-04-20T07:58:06.767Z,9.76
2023-04-20T08:00:39.645Z,9.97
2023-04-20T08:03:12.789Z,10.26
2023-04-20T08:05:48.177Z,10.21
2023-04-20T08:08:21.316Z,10.33
2023-04-20T08:10:54.061Z,10.72
2023-04-20T08:13:27.607Z,10.39
2023-04-20T08:16:00.767Z,10.37
2023-04-20T08:18:33.869Z,10.56
2023-04-20T08:21:08.229Z,10.70
2023-04-20T08:23:41.161Z,11.04
2023-04-20T08:26:16.235Z,10.79
2023-04-20T08:28:49.056Z,11.20
2023-04-20T08:31:22.441Z,11.38
2023-04-20T08:33:55.451Z,11.22
2023-04-20T08:36:29.679Z,11.38
2023-04-20T08:39:09.214Z,10.82
2023-04-20T08:41:42.307Z,10.99
2023-04-20T08:44:15.288Z,10.99
2023-04-20T08:46:49.680Z,11.03
2023-04-20T08:49:22.563Z,11.14
2023-04-20T08:51:56.730Z,11.56
2023-04-20T08:54:29.753Z,11.01
2023-04-20T08:57:02.577Z,11.97
2023-04-20T08:59:38.076Z,11.41
2023-04-20T09:02:12.679Z,11.80
2023-04-20T09:30:52.052Z,11.04
2023-04-20T09:33:29.437Z,11.58
2023-04-20T09:36:06.434Z,11.04
2023-04-20T09:38:39.298Z,11.61
2023-04-20T09:41:12.422Z,12.59
2023-04-20T09:43:46.374Z,11.98
2023-04-20T09:50:50.993Z,12.33
2023-04-20T09:53:24.650Z,11.79
2023-04-20T09:55:59.424Z,12.35
2023-04-20T09:58:33.584Z,12.87
2023-04-20T10:01:10.979Z,12.99
2023-04-20T10:03:44.345Z,13.07
2023-04-20T10:06:23.334Z,13.35
2023-04-20T10:08:56.460Z,13.45
2023-04-20T10:11:40.450Z,12.75
2023-04-20T10:14:20.692Z,12.72
2023-04-20T10:17:01.604Z,12.83
2023-04-20T10:19:39.768Z,12.75
2023-04-20T10:22:26.242Z,11.94
2023-04-20T10:24:59.100Z,12.32
2023-04-20T10:27:32.630Z,12.71
2023-04-20T10:30:11.341Z,12.92
2023-04-20T10:32:44.291Z,12.92
2023-04-20T10:35:17.214Z,13.11
2023-04-20T10:37:52.585Z,12.96
2023-04-20T10:40:27.545Z,12.98
2023-04-20T10:43:00.342Z,12.67
2023-04-20T10:45:38.425Z,12.77
2023-04-20T10:48:16.004Z,12.96
2023-04-20T10:50:50.286Z,13.00
2023-04-20T10:53:27.598Z,12.81
2023-04-20T10:56:01.217Z,12.98
2023-04-20T10:58:34.108Z,13.24
2023-04-20T11:01:07.702Z,13.09
2023-04-20T11:03:41.063Z,13.15
2023-04-20T11:06:14.263Z,13.64
2023-04-20T11:08:48.465Z,13.60
2023-04-20T11:11:24.779Z,14.30
2023-04-20T11:14:08.043Z,14.01
2023-04-20T11:16:50.715Z,14.83
2023-04-20T11:19:26.318Z,14.79
2023-04-20T11:21:59.824Z,14.80
2023-04-20T11:24:35.893Z,14.61
2023-04-20T11:27:08.751Z,13.66
2023-04-20T11:29:41.749Z,13.80
2023-04-20T11:32:19.460Z,13.94
2023-04-20T11:35:06.562Z,13.06
2023-04-20T11:37:47.963Z,13.40
2023-04-20T11:40:22.537Z,13.96
2023-04-20T11:42:55.371Z,14.21
2023-04-20T11:45:28.890Z,14.17
2023-04-20T11:48:02.339Z,14.31
2023-04-20T11:50:35.303Z,13.89
2023-04-20T11:53:09.932Z,13.91
2023-04-20T11:55:44.226Z,13.66
2023-04-20T11:58:16.987Z,13.50
2023-04-20T12:00:49.797Z,13.39
2023-04-20T12:03:22.777Z,12.87
2023-04-20T12:05:55.905Z,13.00
2023-04-20T12:08:28.870Z,12.46
2023-04-20T12:11:02.969Z,12.32
2023-04-20T12:13:35.726Z,12.13
2023-04-20T12:16:09.171Z,11.81
2023-04-20T12:18:42.835Z,12.00
2023-04-20T12:21:15.718Z,11.95
2023-04-20T12:23:49.667Z,11.63
2023-04-20T12:26:34.586Z,12.02
2023-04-20T12:29:10.679Z,11.79
2023-04-20T12:31:43.541Z,11.59
2023-04-20T12:34:17.395Z,11.74
2023-04-20T12:36:50.381Z,11.48
2023-04-20T12:39:23.246Z,11.53
2023-04-20T12:41:58.109Z,11.60
2023-04-20T12:44:30.998Z,11.16
2023-04-20T12:47:03.906Z,10.99
2023-04-20T12:49:36.893Z,10.99
2023-04-20T12:52:09.841Z,11.12
2023-04-20T12:54:44.086Z,11.49
2023-04-20T12:57:18.602Z,11.23
2023-04-20T12:59:51.401Z,10.93
2023-04-20T13:02:24.449Z,10.85
2023-04-20T13:04:57.470Z,10.67
2023-04-20T13:07:31.022Z,10.84
2023-04-20T13:10:04.557Z,10.84
2023-04-20T13:12:38.789Z,10.68
2023-04-20T13:15:13.093Z,10.65
2023-04-20T13:17:46.010Z,10.66
2023-04-20T13:20:18.841Z,10.70
2023-04-20T13:22:57.693Z,10.98
2023-04-20T13:25:33.491Z,10.49
2023-04-20T13:28:07.951Z,10.56
2023-04-20T13:30:40.873Z,10.54
2023-04-20T13:33:13.716Z,10.67
2023-04-20T13:35:46.626Z,10.32
2023-04-20T13:38:22.224Z,10.18
2023-04-20T13:40:55.623Z,10.34
2023-04-20T13:43:29.925Z,10.65
2023-04-20T13:46:02.780Z,10.65
2023-04-20T13:48:35.621Z,10.58
2023-04-20T13:51:08.512Z,10.72
2023-04-20T13:53:41.400Z,10.85
2023-04-20T13:56:14.255Z,10.94
2023-04-20T13:58:48.513Z,10.40
2023-04-20T14:01:21.950Z,11.05
2023-04-20T14:03:55.204Z,11.10
2023-04-20T14:06:28.926Z,11.07
2023-04-20T14:09:01.872Z,11.25
2023-04-20T14:11:34.892Z,11.17
2023-04-20T14:14:09.151Z,11.07
2023-04-20T14:16:45.555Z,11.08
2023-04-20T14:19:18.376Z,11.30
2023-04-20T14:21:51.639Z,11.16
2023-04-20T14:24:24.634Z,11.30
2023-04-20T14:26:58.279Z,11.17
2023-04-20T14:29:32.483Z,11.11
2023-04-20T14:32:05.367Z,11.10
2023-04-20T14:34:38.357Z,11.40
2023-04-20T14:37:11.264Z,11.54
2023-04-20T14:39:44.085Z,11.55
2023-04-20T14:42:17.009Z,11.33
2023-04-20T14:44:51.373Z,11.90
2023-04-20T14:47:24.591Z,11.84
2023-04-20T14:49:57.444Z,11.49
2023-04-20T14:52:30.263Z,11.40
2023-04-20T14:55:03.351Z,11.34
2023-04-20T14:57:36.292Z,10.95
2023-04-20T15:00:12.147Z,11.42
2023-04-20T15:02:45.040Z,11.61
2023-04-20T15:05:18.205Z,11.15
2023-04-20T15:07:51.650Z,11.08
2023-04-20T15:10:24.499Z,10.97
2023-04-20T15:12:57.305Z,10.97
2023-04-20T15:15:47.057Z,10.93
2023-04-20T15:18:20.962Z,10.79
2023-04-20T15:20:53.827Z,10.74
2023-04-20T15:23:26.598Z,10.34
2023-04-20T15:25:59.542Z,10.50
2023-04-20T15:28:32.293Z,10.67
2023-04-20T15:31:08.795Z,10.83
2023-04-20T15:33:44.045Z,10.78
2023-04-20T15:36:19.497Z,11.20
2023-04-20T15:38:53.483Z,11.10
2023-04-20T15:41:27.053Z,10.94
2023-04-20T15:43:59.797Z,10.65
2023-04-20T15:46:34.096Z,10.61
2023-04-20T15:49:06.942Z,10.69
2023-04-20T15:51:40.590Z,10.61
2023-04-20T15:54:14.393Z,10.63
2023-04-20T15:56:47.155Z,10.51
2023-04-20T15:59:20.021Z,10.57
2023-04-20T16:01:54.392Z,10.51
2023-04-20T16:04:27.317Z,10.62
2023-04-20T16:07:00.239Z,10.62
2023-04-20T16:09:33.022Z,10.50
2023-04-20T16:12:06.414Z,10.53
2023-04-20T16:14:39.254Z,10.71
2023-04-20T16:17:14.283Z,10.38
2023-04-20T16:19:47.068Z,10.56
2023-04-20T16:22:20.139Z,10.58
2023-04-20T16:24:53.121Z,10.68
2023-04-20T16:27:26.747Z,10.55
2023-04-20T16:29:59.682Z,10.76
2023-04-20T16:32:34.615Z,10.65
2023-04-20T16:35:09.040Z,10.58
2023-04-20T16:37:41.893Z,10.66
2023-04-20T16:40:14.729Z,10.67
2023-04-20T16:42:47.675Z,10.66
2023-04-20T16:45:22.568Z,10.41
2023-04-20T16:47:58.332Z,10.44
2023-04-20T16:50:32.226Z,10.64
2023-04-20T16:53:05.409Z,10.55
2023-04-20T16:55:38.257Z,10.63
2023-04-20T16:58:11.084Z,10.76
2023-04-20T17:00:44.065Z,10.60
2023-04-20T17:03:18.535Z,10.69
2023-04-20T17:05:51.533Z,10.82
2023-04-20T17:08:27.166Z,10.77
2023-04-20T17:11:01.794Z,10.13
2023-04-20T17:13:34.688Z,10.27
2023-04-20T17:16:07.631Z,10.19
2023-04-20T17:18:42.112Z,10.22
2023-04-20T17:21:15.017Z,10.32
2023-04-20T17:23:47.967Z,10.03
2023-04-20T17:26:20.797Z,9.97
2023-04-20T17:28:53.634Z,10.35
2023-04-20T17:31:26.822Z,10.47
2023-04-20T17:34:01.119Z,10.48
2023-04-20T17:36:34.364Z,10.55
2023-04-20T17:39:07.143Z,10.57
2023-04-20T17:41:39.959Z,10.47
2023-04-20T17:44:12.861Z,10.34
2023-04-20T17:46:45.698Z,10.04
2023-04-20T17:49:19.830Z,10.35
2023-04-20T17:51:52.596Z,10.32
2023-04-20T17:54:25.447Z,10.34
2023-04-20T17:56:58.224Z,10.48
2023-04-20T17:59:31.370Z,10.50
2023-04-20T18:02:04.300Z,10.36
2023-04-20T18:08:58.197Z,9.84
2023-04-20T18:11:30.968Z,10.02
2023-04-20T18:14:04.249Z,10.08
2023-04-20T18:16:37.110Z,10.28
2023-04-20T18:19:09.957Z,10.22
2023-04-20T18:21:42.783Z,10.26
2023-04-20T18:24:17.450Z,10.10
2023-04-20T18:26:50.412Z,10.31
2023-04-20T18:29:23.227Z,10.45
2023-04-20T18:31:59.408Z,10.39
2023-04-20T18:34:32.612Z,10.22
2023-04-20T18:37:05.674Z,10.46
2023-04-20T18:39:39.922Z,10.29
2023-04-20T18:42:13.151Z,10.09
2023-04-20T18:44:46.496Z,10.24
2023-04-20T18:47:20.832Z,10.01
2023-04-20T18:49:54.245Z,10.14
2023-04-20T18:52:27.163Z,10.18
2023-04-20T18:55:01.449Z,10.26
2023-04-20T18:57:34.192Z,10.30
2023-04-20T19:00:09.281Z,10.36
2023-04-20T19:02:42.747Z,10.40
2023-04-20T19:05:16.121Z,10.19
2023-04-20T19:07:49.043Z,10.27
2023-04-20T19:10:23.827Z,10.28
2023-04-20T19:12:56.906Z,10.33
2023-04-20T19:15:29.787Z,10.39
2023-04-20T19:18:02.964Z,10.34
2023-04-20T19:20:36.660Z,10.09
2023-04-20T19:23:09.584Z,10.15
2023-04-20T19:25:44.017Z,10.11
2023-04-20T19:28:16.863Z,10.05
2023-04-20T19:30:49.621Z,10.17
2023-04-20T19:33:22.551Z,10.05
2023-04-20T19:35:55.393Z,10.14
2023-04-20T19:38:31.106Z,9.90
2023-04-20T19:41:05.647Z,10.14
2023-04-20T19:43:38.683Z,9.81
2023-04-20T19:46:11.768Z,9.95
2023-04-20T19:48:44.820Z,9.94
2023-04-20T19:51:19.275Z,10.00
2023-04-20T19:53:52.408Z,9.79
2023-04-20T19:56:26.835Z,9.86
2023-04-20T19:58:59.910Z,9.99
2023-04-20T20:01:32.748Z,10.01
2023-04-20T20:04:06.170Z,9.88
2023-04-20T20:06:40.473Z,9.93
2023-04-20T20:09:13.833Z,9.97
2023-04-20T20:11:50.002Z,10.06
2023-04-20T20:14:22.905Z,9.96
2023-04-20T20:16:56.614Z,9.54
2023-04-20T20:19:29.964Z,9.59
2023-04-20T20:22:02.765Z,9.35
2023-04-20T20:24:35.655Z,9.33
2023-04-20T20:27:09.894Z,9.42
2023-04-20T20:29:42.741Z,9.28
2023-04-20T20:32:16.042Z,9.48
2023-04-20T20:34:49.219Z,9.59
2023-04-20T20:37:22.055Z,9.27
2023-04-20T20:39:54.971Z,9.18
2023-04-20T20:42:30.397Z,9.02
2023-04-20T20:45:03.486Z,8.57
2023-04-20T20:47:36.386Z,8.77
2023-04-20T20:50:10.058Z,8.90
2023-04-20T20:52:43.016Z,8.56
2023-04-20T20:55:16.256Z,8.37
2023-04-20T20:57:50.542Z,8.41
2023-04-20T21:00:23.802Z,8.19
2023-04-20T21:02:57.166Z,7.94
2023-04-20T21:05:30.290Z,8.01
2023-04-20T21:08:03.351Z,7.87
2023-04-20T21:10:36.261Z,7.68
2023-04-20T21:13:10.508Z,7.78
2023-04-20T21:15:44.418Z,7.60
2023-04-20T21:18:17.433Z,7.67
2023-04-20T21:20:50.430Z,7.57
2023-04-20T21:23:23.545Z,7.66
2023-04-20T21:25:56.376Z,7.71
2023-04-20T21:28:30.615Z,7.43
2023-04-20T21:31:03.498Z,7.42
2023-04-20T21:33:36.834Z,7.42
2023-04-20T21:36:09.948Z,7.69
2023-04-20T21:38:42.779Z,7.84
2023-04-20T21:41:15.737Z,7.60
2023-04-20T21:43:52.741Z,7.35
2023-04-20T21:46:25.677Z,7.61
2023-04-20T21:48:58.635Z,7.43
2023-04-20T21:51:32.100Z,7.64
2023-04-20T21:54:05.385Z,7.51
2023-04-20T21:56:38.558Z,7.68
2023-04-20T21:59:12.831Z,7.76
2023-04-20T22:01:45.777Z,7.65
2023-04-20T22:04:19.592Z,7.47
2023-04-20T22:06:53.430Z,7.78
2023-04-20T22:09:26.401Z,7.89
2023-04-20T22:12:01.912Z,7.90
2023-04-20T22:14:36.473Z,7.92
2023-04-20T22:17:09.549Z,7.79
2023-04-20T22:19:42.623Z,7.97
2023-04-20T22:22:15.474Z,7.87
2023-04-20T22:24:48.727Z,8.01
2023-04-20T22:27:21.770Z,8.05
2023-04-20T22:29:56.154Z,7.88
2023-04-20T22:32:29.175Z,8.18
2023-04-20T22:35:02.056Z,8.32
2023-04-20T22:37:35.003Z,8.15
2023-04-20T22:40:09.675Z,7.91
2023-04-20T22:42:42.431Z,7.82
2023-04-20T22:45:19.744Z,7.81
2023-04-20T22:47:52.825Z,7.91
2023-04-20T22:50:25.794Z,8.17
2023-04-20T22:52:58.675Z,8.13
2023-04-20T22:55:31.560Z,8.13
2023-04-20T22:58:04.466Z,8.00
2023-04-20T23:00:38.710Z,8.26
2023-04-20T23:03:11.741Z,7.84
2023-04-20T23:05:45.082Z,7.91
2023-04-20T23:08:20.661Z,8.38
2023-04-20T23:10:55.047Z,8.15
2023-04-20T23:13:28.973Z,8.26
2023-04-20T23:16:03.194Z,8.45
2023-04-20T23:18:36.368Z,8.42
2023-04-20T23:21:09.161Z,8.55
2023-04-20T23:23:42.253Z,8.76
2023-04-20T23:26:15.122Z,8.76
2023-04-20T23:28:48.057Z,8.95
2023-04-20T23:31:22.764Z,8.44
2023-04-20T23:33:55.701Z,8.45
2023-04-20T23:36:28.989Z,8.20
2023-04-20T23:39:02.036Z,8.45
2023-04-20T23:41:35.124Z,8.58
2023-04-20T23:44:08.206Z,8.29
2023-04-20T23:46:42.522Z,8.42
2023-04-20T23:49:15.661Z,8.39
2023-04-20T23:51:48.741Z,8.51
2023-04-20T23:54:21.533Z,8.50
2023-04-20T23:56:55.256Z,8.44
2023-04-20T23:59:28.202Z,8.33
